createdAt,value
2022-09-10T00:02:12.735Z,0.40
2022-09-10T00:04:42.297Z,0.40
2022-09-10T00:07:12.118Z,0.30
2022-09-10T00:09:41.948Z,0.10
2022-09-10T00:12:11.774Z,0.30
2022-09-10T00:14:41.227Z,0.30
2022-09-10T00:17:10.765Z,0.20
2022-09-10T00:19:40.219Z,0.20
2022-09-10T00:22:10.441Z,0.20
2022-09-10T00:24:39.895Z,0.23
2022-09-10T00:27:10.325Z,0.10
2022-09-10T00:29:39.850Z,0.30
2022-09-10T00:32:09.660Z,0.20
2022-09-10T00:34:39.193Z,0.20
2022-09-10T00:37:09.535Z,0.17
2022-09-10T00:39:39.026Z,0.20
2022-09-10T00:42:11.665Z,0.20
2022-09-10T00:44:45.905Z,0.30
2022-09-10T00:47:28.216Z,0.13
2022-09-10T00:50:14.037Z,0.20
2022-09-10T00:52:46.883Z,0.40
2022-09-10T00:55:18.253Z,0.30
2022-09-10T00:57:54.292Z,0.60
2022-09-10T01:00:24.669Z,0.30
2022-09-10T01:02:55.070Z,0.30
2022-09-10T01:05:26.911Z,0.23
2022-09-10T01:07:58.025Z,0.30
2022-09-10T01:10:35.049Z,0.40
2022-09-10T01:13:32.497Z,0.30
2022-09-10T01:16:24.674Z,0.20
2022-09-10T01:19:04.487Z,0.20
2022-09-10T01:22:15.387Z,0.20
2022-09-10T01:25:18.503Z,0.30
2022-09-10T01:27:52.895Z,0.20
2022-09-10T01:30:29.661Z,0.30
2022-09-10T01:33:34.302Z,0.17
2022-09-10T01:36:12.555Z,0.20
2022-09-10T01:38:43.157Z,0.30
2022-09-10T01:41:14.711Z,0.20
2022-09-10T01:43:44.181Z,0.30
2022-09-10T01:46:41.438Z,0.20
2022-09-10T01:49:41.788Z,0.30
2022-09-10T01:52:25.402Z,0.37
2022-09-10T01:55:11.446Z,0.30
2022-09-10T01:57:59.651Z,0.30
2022-09-10T02:00:29.733Z,0.30
2022-09-10T02:03:04.075Z,0.27
2022-09-10T02:05:37.841Z,0.20
2022-09-10T02:08:17.959Z,0.30
2022-09-10T02:11:09.232Z,0.20
2022-09-10T02:13:39.711Z,0.30
2022-09-10T02:16:13.951Z,0.30
2022-09-10T02:18:44.566Z,0.20
2022-09-10T02:21:15.264Z,0.40
2022-09-10T02:23:49.468Z,0.40
2022-09-10T02:26:19.085Z,0.40
2022-09-10T02:28:50.180Z,0.30
2022-09-10T02:31:19.946Z,0.20
2022-09-10T02:33:49.435Z,0.30
2022-09-10T02:36:20.296Z,0.20
2022-09-10T02:38:49.823Z,0.17
2022-09-10T02:41:20.185Z,0.30
2022-09-10T02:43:49.642Z,0.37
2022-09-10T02:46:19.095Z,0.30
2022-09-10T02:48:48.872Z,0.30
2022-09-10T02:51:18.493Z,0.30
2022-09-10T02:53:49.229Z,0.20
2022-09-10T02:56:20.306Z,0.30
2022-09-10T02:58:49.773Z,0.37
2022-09-10T03:01:22.698Z,0.20
2022-09-10T03:03:59.639Z,0.30
2022-09-10T03:06:29.521Z,0.30
2022-09-10T03:08:58.984Z,0.30
2022-09-10T03:11:28.797Z,0.30
2022-09-10T03:13:58.286Z,0.30
2022-09-10T03:16:27.785Z,0.40
2022-09-10T03:18:57.266Z,0.23
2022-09-10T03:21:26.878Z,0.20
2022-09-10T03:23:57.302Z,0.40
2022-09-10T03:26:27.337Z,0.30
2022-09-10T03:28:56.968Z,0.57
2022-09-10T03:31:28.553Z,0.40
2022-09-10T03:33:59.878Z,0.50
2022-09-10T03:36:30.955Z,0.30
2022-09-10T03:39:01.252Z,0.30
2022-09-10T03:41:31.665Z,0.50
2022-09-10T03:44:01.126Z,0.57
2022-09-10T03:46:30.937Z,0.50
2022-09-10T03:49:02.377Z,0.60
2022-09-10T03:51:31.829Z,0.57
2022-09-10T03:54:02.571Z,0.80
2022-09-10T03:56:32.196Z,0.60
2022-09-10T03:59:01.804Z,0.47
2022-09-10T04:01:31.258Z,0.50
2022-09-10T04:04:01.076Z,0.60
2022-09-10T04:06:32.178Z,0.50
2022-09-10T04:09:01.890Z,0.50
2022-09-10T04:11:31.732Z,0.40
2022-09-10T04:14:01.557Z,0.60
2022-09-10T04:16:32.553Z,0.50
2022-09-10T04:19:02.087Z,0.30
2022-09-10T04:21:31.612Z,0.30
2022-09-10T04:24:01.119Z,0.30
2022-09-10T04:26:30.644Z,0.53
2022-09-10T04:29:00.106Z,0.13
2022-09-10T04:31:29.830Z,0.30
2022-09-10T04:34:00.930Z,0.30
2022-09-10T04:36:30.722Z,0.20
2022-09-10T04:39:00.168Z,0.30
2022-09-10T04:41:29.627Z,0.27
2022-09-10T04:43:59.078Z,0.40
2022-09-10T04:46:28.874Z,0.40
2022-09-10T04:48:58.337Z,0.20
2022-09-10T04:51:27.832Z,0.23
2022-09-10T04:53:59.341Z,0.30
2022-09-10T04:56:29.049Z,0.40
2022-09-10T04:58:58.540Z,0.30
2022-09-10T05:01:29.039Z,0.37
2022-09-10T05:03:58.760Z,0.40
2022-09-10T05:06:28.211Z,0.30
2022-09-10T05:08:57.805Z,0.40
2022-09-10T05:11:27.421Z,0.50
2022-09-10T05:13:56.877Z,0.20
2022-09-10T05:16:26.408Z,0.30
2022-09-10T05:18:56.233Z,0.40
2022-09-10T05:21:26.155Z,0.50
2022-09-10T05:23:56.196Z,0.30
2022-09-10T05:26:28.072Z,0.40
2022-09-10T05:28:59.217Z,0.30
2022-09-10T05:31:28.729Z,0.40
2022-09-10T05:33:59.925Z,0.30
2022-09-10T05:36:32.163Z,0.30
2022-09-10T05:39:04.548Z,0.20
2022-09-10T05:41:34.668Z,0.40
2022-09-10T05:44:05.008Z,0.40
2022-09-10T05:46:34.814Z,0.40
2022-09-10T05:49:04.425Z,0.30
2022-09-10T05:51:34.381Z,0.40
2022-09-10T05:54:03.821Z,0.43
2022-09-10T05:56:33.293Z,0.50
2022-09-10T05:59:04.118Z,0.30
2022-09-10T06:01:33.590Z,0.37
2022-09-10T06:04:03.103Z,0.50
2022-09-10T06:06:34.306Z,0.20
2022-09-10T06:09:03.926Z,0.40
2022-09-10T06:11:33.395Z,0.40
2022-09-10T06:14:02.843Z,0.40
2022-09-10T06:16:33.883Z,0.30
2022-09-10T06:19:03.490Z,0.50
2022-09-10T06:21:32.953Z,0.67
2022-09-10T06:24:02.530Z,0.43
2022-09-10T06:26:31.995Z,0.60
2022-09-10T06:29:01.865Z,0.50
2022-09-10T06:31:31.328Z,0.53
2022-09-10T06:34:00.778Z,0.60
2022-09-10T06:36:30.324Z,0.53
2022-09-10T06:39:01.400Z,0.40
2022-09-10T06:41:31.048Z,0.63
2022-09-10T06:44:00.495Z,0.70
2022-09-10T06:47:08.408Z,0.50
2022-09-10T06:49:03.384Z,0.30
2022-09-10T06:51:33.994Z,0.80
2022-09-10T06:54:03.706Z,0.60
2022-09-10T06:56:33.354Z,0.70
2022-09-10T06:59:02.898Z,0.70
2022-09-10T07:01:33.069Z,0.60
2022-09-10T07:04:05.311Z,0.50
2022-09-10T07:06:37.212Z,0.63
2022-09-10T07:09:07.197Z,0.63
2022-09-10T07:11:41.202Z,0.60
2022-09-10T07:14:08.195Z,0.60
2022-09-10T07:16:39.333Z,0.83
2022-09-10T07:19:09.787Z,0.57
2022-09-10T07:21:39.427Z,0.57
2022-09-10T07:24:10.420Z,0.70
2022-09-10T07:26:40.177Z,0.87
2022-09-10T07:29:09.894Z,0.47
2022-09-10T07:31:40.984Z,0.50
2022-09-10T07:34:11.575Z,0.60
2022-09-10T07:36:41.034Z,0.50
2022-09-10T07:39:12.132Z,0.57
2022-09-10T07:41:41.857Z,0.50
2022-09-10T07:44:12.183Z,0.60
2022-09-10T07:46:42.502Z,0.60
2022-09-10T07:49:12.020Z,0.40
2022-09-10T07:51:41.487Z,0.50
2022-09-10T07:54:11.003Z,0.40
2022-09-10T07:56:40.460Z,0.50
2022-09-10T07:59:10.185Z,0.40
2022-09-10T08:01:39.765Z,0.50
2022-09-10T08:04:10.887Z,0.47
2022-09-10T08:06:40.346Z,0.47
2022-09-10T08:09:09.798Z,0.33
2022-09-10T08:11:42.050Z,0.60
2022-09-10T08:14:13.255Z,0.40
2022-09-10T08:16:44.534Z,0.60
2022-09-10T08:19:14.971Z,0.40
2022-09-10T08:21:45.273Z,0.40
2022-09-10T08:24:14.721Z,0.50
2022-09-10T08:26:44.446Z,0.40
2022-09-10T08:29:13.965Z,0.60
2022-09-10T08:31:43.422Z,0.50
2022-09-10T08:34:14.412Z,0.60
2022-09-10T08:36:43.871Z,0.43
2022-09-10T08:39:14.544Z,0.40
2022-09-10T08:41:54.233Z,0.37
2022-09-10T08:44:50.013Z,0.40
2022-09-10T08:47:26.544Z,0.20
2022-09-10T08:50:13.302Z,0.30
2022-09-10T08:52:50.346Z,0.47
2022-09-10T08:55:24.426Z,0.30
2022-09-10T08:58:20.810Z,0.30
2022-09-10T09:00:56.151Z,0.63
2022-09-10T09:03:47.355Z,0.30
2022-09-10T09:06:42.073Z,0.30
2022-09-10T09:09:15.869Z,0.40
2022-09-10T09:12:15.596Z,0.40
2022-09-10T09:15:25.475Z,0.50
2022-09-10T09:18:20.081Z,0.30
2022-09-10T09:21:06.992Z,0.50
2022-09-10T09:24:12.131Z,0.47
2022-09-10T09:26:32.879Z,0.40
2022-09-10T09:29:16.259Z,0.50
2022-09-10T09:31:51.078Z,0.40
2022-09-10T09:34:32.491Z,0.50
2022-09-10T09:37:06.933Z,0.30
2022-09-10T09:39:46.501Z,0.40
2022-09-10T09:42:50.757Z,0.43
2022-09-10T09:45:44.121Z,0.50
2022-09-10T09:48:21.023Z,0.40
2022-09-10T09:50:59.843Z,0.43
2022-09-10T09:53:31.273Z,0.60
2022-09-10T09:56:13.584Z,0.57
2022-09-10T09:58:47.722Z,0.23
2022-09-10T10:01:24.781Z,0.40
2022-09-10T10:04:22.829Z,0.40
2022-09-10T10:07:04.503Z,0.20
2022-09-10T10:09:38.613Z,0.20
2022-09-10T10:12:12.289Z,0.60
2022-09-10T10:14:44.672Z,0.40
2022-09-10T10:17:30.913Z,0.40
2022-09-10T10:20:22.764Z,0.30
2022-09-10T10:22:52.643Z,0.37
2022-09-10T10:25:41.175Z,0.50
2022-09-10T10:28:26.160Z,0.30
2022-09-10T10:31:00.519Z,0.30
2022-09-10T10:33:34.035Z,0.37
2022-09-10T10:36:10.528Z,0.30
2022-09-10T10:38:44.651Z,0.43
2022-09-10T10:41:37.239Z,0.30
2022-09-10T10:44:27.918Z,0.50
2022-09-10T10:47:33.846Z,0.40
2022-09-10T10:50:19.108Z,0.30
2022-09-10T10:52:55.916Z,0.47
2022-09-10T10:55:47.362Z,0.43
2022-09-10T10:58:57.936Z,0.30
2022-09-10T11:01:32.308Z,0.30
2022-09-10T11:04:24.124Z,0.33
2022-09-10T11:07:03.889Z,0.20
2022-09-10T11:10:24.732Z,0.40
2022-09-10T11:13:19.879Z,0.30
2022-09-10T11:15:59.641Z,0.40
2022-09-10T11:18:45.773Z,0.40
2022-09-10T11:21:34.164Z,0.43
2022-09-10T11:24:24.022Z,0.30
2022-09-10T11:27:13.037Z,0.40
2022-09-10T11:30:08.035Z,0.40
2022-09-10T11:32:47.617Z,0.40
2022-09-10T11:35:24.336Z,0.33
2022-09-10T11:38:26.251Z,0.20
2022-09-10T11:41:22.458Z,0.30
2022-09-10T11:44:12.868Z,0.33
2022-09-10T11:47:21.840Z,0.27
2022-09-10T11:49:59.771Z,0.40
2022-09-10T11:52:34.430Z,0.30
2022-09-10T11:55:08.478Z,0.30
2022-09-10T11:57:59.861Z,0.30
2022-09-10T12:00:33.962Z,0.60
2022-09-10T12:03:29.219Z,0.30
2022-09-10T12:06:17.923Z,0.30
2022-09-10T12:09:11.338Z,0.40
2022-09-10T12:11:48.294Z,0.50
2022-09-10T12:14:21.848Z,0.40
2022-09-10T12:17:04.596Z,0.40
2022-09-10T12:19:50.737Z,0.40
2022-09-10T12:22:38.549Z,0.40
2022-09-10T12:25:21.155Z,0.30
2022-09-10T12:28:02.786Z,0.30
2022-09-10T12:30:36.878Z,0.33
2022-09-10T12:33:19.807Z,0.20
2022-09-10T12:35:51.778Z,0.33
2022-09-10T12:39:17.627Z,0.30
2022-09-10T12:41:51.680Z,0.30
2022-09-10T12:44:40.817Z,0.30
2022-09-10T12:47:21.622Z,0.23
2022-09-10T12:50:07.716Z,0.30
2022-09-10T12:52:47.508Z,0.30
2022-09-10T12:55:36.174Z,0.33
2022-09-10T12:58:18.436Z,0.40
2022-09-10T13:00:54.992Z,0.30
2022-09-10T13:03:28.785Z,0.40
2022-09-10T13:06:04.163Z,0.40
2022-09-10T13:08:43.035Z,0.33
2022-09-10T13:11:25.035Z,0.40
2022-09-10T13:14:02.000Z,0.30
2022-09-10T13:16:36.606Z,0.23
2022-09-10T13:19:19.530Z,0.40
2022-09-10T13:21:52.993Z,0.50
2022-09-10T13:24:42.758Z,0.50
2022-09-10T13:27:22.713Z,0.33
2022-09-10T13:30:14.476Z,0.50
2022-09-10T13:32:57.561Z,0.30
2022-09-10T13:35:52.212Z,0.40
2022-09-10T13:38:41.387Z,0.40
2022-09-10T13:41:46.587Z,0.30
2022-09-10T13:44:45.821Z,0.30
2022-09-10T13:47:19.895Z,0.20
2022-09-10T13:50:02.909Z,0.30
2022-09-10T13:52:37.859Z,0.40
2022-09-10T13:55:08.519Z,0.23
2022-09-10T13:57:46.018Z,0.30
2022-09-10T14:00:23.683Z,0.30
2022-09-10T14:02:57.401Z,0.37
2022-09-10T14:05:49.964Z,0.20
2022-09-10T14:08:29.232Z,0.40
2022-09-10T14:11:10.356Z,0.30
2022-09-10T14:13:51.535Z,0.30
2022-09-10T14:16:29.970Z,0.33
2022-09-10T14:19:01.756Z,0.30
2022-09-10T14:21:32.411Z,0.50
2022-09-10T14:24:01.937Z,0.30
2022-09-10T14:26:33.835Z,0.30
2022-09-10T14:29:16.418Z,0.30
2022-09-10T14:31:45.938Z,0.40
2022-09-10T14:34:33.259Z,0.30
2022-09-10T14:37:05.183Z,0.47
2022-09-10T14:39:34.682Z,0.20
2022-09-10T14:42:25.175Z,0.30
2022-09-10T14:44:55.885Z,0.40
2022-09-10T14:47:35.076Z,0.50
2022-09-10T14:50:34.190Z,0.40
2022-09-10T14:53:03.733Z,0.30
2022-09-10T14:55:34.310Z,0.40
2022-09-10T14:58:03.858Z,0.37
2022-09-10T15:00:34.765Z,0.30
2022-09-10T15:03:04.395Z,0.30
2022-09-10T15:05:33.851Z,0.40
2022-09-10T15:08:03.634Z,0.37
2022-09-10T15:10:33.064Z,0.40
2022-09-10T15:13:02.701Z,0.40
2022-09-10T15:15:32.184Z,0.43
2022-09-10T15:18:01.603Z,0.40
2022-09-10T15:20:31.314Z,0.33
2022-09-10T15:23:00.787Z,0.30
2022-09-10T15:25:46.984Z,0.30
2022-09-10T15:28:16.452Z,0.40
2022-09-10T15:30:45.948Z,0.23
2022-09-10T15:33:15.982Z,0.30
2022-09-10T15:35:45.588Z,0.30
2022-09-10T15:38:16.966Z,0.30
2022-09-10T15:40:49.656Z,0.40
2022-09-10T15:43:20.060Z,0.40
2022-09-10T15:45:49.969Z,0.30
2022-09-10T15:48:19.428Z,0.40
2022-09-10T15:50:50.048Z,0.50
2022-09-10T15:53:20.779Z,0.40
2022-09-10T15:55:50.704Z,0.30
2022-09-10T15:58:20.171Z,0.37
2022-09-10T16:00:49.607Z,0.40
2022-09-10T16:03:20.643Z,0.40
2022-09-10T16:05:50.097Z,0.40
2022-09-10T16:08:20.053Z,0.30
2022-09-10T16:10:49.507Z,0.30
2022-09-10T16:13:19.840Z,0.33
2022-09-10T16:16:04.579Z,0.30
2022-09-10T16:18:35.016Z,0.30
2022-09-10T16:21:15.497Z,0.23
2022-09-10T16:23:46.950Z,0.30
2022-09-10T16:26:20.321Z,0.30
2022-09-10T16:28:58.976Z,0.30
2022-09-10T16:31:34.525Z,0.30
2022-09-10T16:34:07.236Z,0.60
2022-09-10T16:36:39.185Z,0.37
2022-09-10T16:39:12.504Z,0.40
2022-09-10T16:41:45.276Z,0.50
2022-09-10T16:44:16.725Z,0.30
2022-09-10T16:46:47.184Z,0.40
2022-09-10T16:49:19.858Z,0.40
2022-09-10T16:51:50.104Z,0.30
2022-09-10T16:54:20.859Z,0.27
2022-09-10T16:56:51.031Z,0.57
2022-09-10T16:59:25.915Z,0.50
2022-09-10T17:01:57.059Z,0.40
2022-09-10T17:04:29.183Z,0.80
2022-09-10T17:06:59.946Z,0.40
2022-09-10T17:09:29.492Z,0.60
2022-09-10T17:11:59.388Z,0.50
2022-09-10T17:14:28.832Z,0.50
2022-09-10T17:16:58.768Z,0.30
2022-09-10T17:19:29.277Z,0.40
2022-09-10T17:21:58.743Z,0.50
2022-09-10T17:24:28.949Z,0.40
2022-09-10T17:26:58.564Z,0.47
2022-09-10T17:29:28.083Z,0.37
2022-09-10T17:31:58.590Z,0.30
2022-09-10T17:34:28.589Z,0.40
2022-09-10T17:36:58.103Z,0.50
2022-09-10T17:39:29.215Z,0.50
2022-09-10T17:41:58.860Z,0.70
2022-09-10T17:44:28.433Z,0.40
2022-09-10T17:46:57.900Z,0.50
2022-09-10T17:49:27.404Z,0.50
2022-09-10T17:51:56.866Z,0.60
2022-09-10T17:54:26.307Z,0.40
2022-09-10T17:56:55.768Z,0.40
2022-09-10T17:59:25.278Z,0.40
2022-09-10T18:01:54.797Z,0.47
2022-09-10T18:04:26.300Z,0.70
2022-09-10T18:06:55.762Z,0.30
2022-09-10T18:09:26.372Z,0.23
2022-09-10T18:11:56.809Z,0.30
2022-09-10T18:14:26.337Z,0.40
2022-09-10T18:16:57.729Z,0.30
2022-09-10T18:19:27.174Z,0.30
2022-09-10T18:21:56.669Z,0.30
2022-09-10T18:24:26.189Z,0.40
2022-09-10T18:26:57.262Z,0.40
2022-09-10T18:29:30.287Z,0.50
2022-09-10T18:32:01.715Z,0.50
2022-09-10T18:34:32.440Z,0.50
2022-09-10T18:37:04.035Z,0.50
2022-09-10T18:39:34.902Z,0.47
2022-09-10T18:42:05.598Z,0.50
2022-09-10T18:44:37.035Z,0.70
2022-09-10T18:47:27.870Z,0.80
2022-09-10T18:49:40.211Z,0.90
2022-09-10T18:52:11.301Z,0.80
2022-09-10T18:54:46.322Z,1.00
2022-09-10T18:57:12.938Z,0.93
2022-09-10T18:59:42.386Z,0.90
2022-09-10T19:02:17.257Z,0.93
2022-09-10T19:05:09.874Z,0.97
2022-09-10T19:07:17.956Z,0.90
2022-09-10T19:09:47.669Z,0.90
2022-09-10T19:12:19.200Z,1.10
2022-09-10T19:14:48.313Z,1.00
2022-09-10T19:17:18.444Z,1.00
2022-09-10T19:19:47.887Z,1.10
2022-09-10T19:22:18.120Z,1.20
2022-09-10T19:24:55.721Z,1.10
2022-09-10T19:27:19.050Z,1.20
2022-09-10T19:29:49.807Z,1.30
2022-09-10T19:32:22.856Z,0.90
2022-09-10T19:34:54.895Z,1.20
2022-09-10T19:37:24.351Z,0.80
2022-09-10T19:39:55.480Z,0.80
2022-09-10T19:42:24.981Z,0.70
2022-09-10T19:44:54.425Z,0.80
2022-09-10T19:47:23.933Z,0.90
2022-09-10T19:49:53.388Z,0.80
2022-09-10T19:52:24.400Z,0.70
2022-09-10T19:54:54.511Z,1.07
2022-09-10T19:57:23.952Z,1.00
2022-09-10T19:59:53.436Z,1.10
2022-09-10T20:02:23.387Z,1.27
2022-09-10T20:04:52.946Z,1.10
2022-09-10T20:07:22.503Z,1.03
2022-09-10T20:09:52.060Z,1.40
2022-09-10T20:12:22.536Z,1.30
2022-09-10T20:14:53.822Z,1.40
2022-09-10T20:17:23.264Z,1.40
2022-09-10T20:19:52.733Z,1.23
2022-09-10T20:22:22.177Z,1.13
2022-09-10T20:24:51.634Z,1.20
2022-09-10T20:27:21.103Z,1.27
2022-09-10T20:29:50.569Z,1.20
2022-09-10T20:32:20.043Z,1.73
2022-09-10T20:34:50.083Z,1.60
2022-09-10T20:37:19.706Z,1.40
2022-09-10T20:39:50.401Z,1.30
2022-09-10T20:42:19.881Z,1.20
2022-09-10T20:44:49.380Z,1.20
2022-09-10T20:47:18.814Z,1.00
2022-09-10T20:49:48.347Z,1.30
2022-09-10T20:52:18.231Z,1.17
2022-09-10T20:54:49.326Z,1.20
2022-09-10T20:57:20.685Z,0.90
2022-09-10T20:59:50.509Z,1.10
2022-09-10T21:02:20.323Z,1.10
2022-09-10T21:04:49.892Z,1.03
2022-09-10T21:07:20.299Z,1.00
2022-09-10T21:09:49.793Z,1.30
2022-09-10T21:12:19.232Z,1.00
2022-09-10T21:14:48.764Z,1.30
2022-09-10T21:17:18.286Z,1.50
2022-09-10T21:19:48.914Z,1.70
2022-09-10T21:22:18.533Z,1.30
2022-09-10T21:24:48.016Z,1.30
2022-09-10T21:27:17.466Z,1.60
2022-09-10T21:29:47.090Z,1.50
2022-09-10T21:32:16.534Z,1.07
2022-09-10T21:34:45.982Z,1.00
2022-09-10T21:37:15.427Z,0.80
2022-09-10T21:39:44.934Z,1.00
2022-09-10T21:42:14.486Z,0.93
2022-09-10T21:44:43.941Z,0.90
2022-09-10T21:47:14.359Z,1.00
2022-09-10T21:49:43.813Z,1.00
2022-09-10T21:52:14.604Z,1.20
2022-09-10T21:54:44.049Z,1.20
2022-09-10T21:57:13.495Z,1.10
2022-09-10T21:59:42.945Z,0.80
2022-09-10T22:02:12.537Z,1.00
2022-09-10T22:04:42.886Z,0.80
2022-09-10T22:07:14.106Z,1.03
2022-09-10T22:09:43.562Z,1.00
2022-09-10T22:12:13.007Z,1.00
2022-09-10T22:14:42.524Z,0.83
2022-09-10T22:17:12.637Z,1.13
2022-09-10T22:19:42.089Z,1.10
2022-09-10T22:22:11.531Z,1.17
2022-09-10T22:24:41.915Z,1.63
2022-09-10T22:27:11.359Z,1.80
2022-09-10T22:29:40.809Z,1.70
2022-09-10T22:32:10.685Z,1.83
2022-09-10T22:34:40.144Z,1.50
2022-09-10T22:37:09.587Z,1.20
2022-09-10T22:39:39.072Z,1.17
2022-09-10T22:42:08.482Z,1.20
2022-09-10T22:44:37.937Z,0.70
2022-09-10T22:47:08.008Z,0.70
2022-09-10T22:49:37.465Z,0.77
2022-09-10T22:52:06.905Z,1.03
2022-09-10T22:54:36.372Z,1.27
2022-09-10T22:57:06.045Z,1.10
2022-09-10T22:59:37.145Z,1.00
2022-09-10T23:02:07.038Z,1.00
2022-09-10T23:04:36.496Z,0.90
2022-09-10T23:07:05.936Z,1.00
2022-09-10T23:09:35.673Z,1.10
2022-09-10T23:12:05.180Z,0.87
2022-09-10T23:14:34.994Z,1.00
2022-09-10T23:17:04.433Z,1.27
2022-09-10T23:19:34.347Z,0.90
2022-09-10T23:22:03.790Z,0.90
2022-09-10T23:24:33.241Z,1.00
2022-09-10T23:27:03.751Z,0.70
2022-09-10T23:29:33.195Z,0.90
2022-09-10T23:32:02.875Z,0.90
2022-09-10T23:34:32.333Z,0.93
2022-09-10T23:37:01.786Z,0.70
2022-09-10T23:39:31.229Z,0.90
2022-09-10T23:42:00.745Z,0.77
2022-09-10T23:44:31.033Z,0.83
2022-09-10T23:47:00.473Z,1.17
2022-09-10T23:49:29.916Z,0.73
2022-09-10T23:51:59.362Z,0.63
2022-09-10T23:54:30.185Z,0.77
2022-09-10T23:57:00.000Z,0.90
2022-09-10T23:59:29.447Z,0.50
